Time;durP1;ratioP1;P1;durP2;ratioP2;P2;SDS_P1;SDS_P2;PMS_P1;PMS_P2;Temp;Humidity;BMP_temperature;BMP_pressure;BME280_temperature;BME280_humidity;BME280_pressure;Samples;Min_cycle;Max_cycle;Signal;HPM_P1;HPM_P2
2023/06/03 00:02:00;;;;;;;18.17;5.25;;;12.00;99.90;;;;;;6156828;23;20044;-86
2023/06/03 00:04:48;;;;;;;12.55;5.20;;;11.90;99.90;;;;;;6156170;23;20025;-87
2023/06/03 00:07:35;;;;;;;18.85;5.55;;;11.90;99.90;;;;;;6155601;23;20021;-86
2023/06/03 00:10:22;;;;;;;14.15;5.25;;;11.90;99.90;;;;;;6156509;23;20032;-86
2023/06/03 00:13:09;;;;;;;15.63;5.10;;;11.90;99.90;;;;;;6154427;23;20021;-86
2023/06/03 00:15:57;;;;;;;14.10;4.95;;;11.80;99.90;;;;;;6156271;23;20025;-86
2023/06/03 00:18:45;;;;;;;14.82;5.60;;;11.80;99.90;;;;;;6155723;23;20111;-88
2023/06/03 00:21:33;;;;;;;12.60;5.68;;;11.70;99.90;;;;;;6156070;23;20029;-86
2023/06/03 00:24:22;;;;;;;12.98;4.97;;;11.60;99.90;;;;;;6156140;23;20035;-86
2023/06/03 00:27:14;;;;;;;13.10;5.30;;;11.50;99.90;;;;;;6156826;23;20040;-87
2023/06/03 00:30:02;;;;;;;16.33;6.28;;;11.50;99.90;;;;;;6155617;23;20025;-86
2023/06/03 00:32:49;;;;;;;19.55;5.78;;;11.50;99.90;;;;;;6154918;23;20021;-86
2023/06/03 00:35:37;;;;;;;11.90;6.03;;;11.50;99.90;;;;;;6157975;23;20029;-85
2023/06/03 00:38:24;;;;;;;10.25;5.00;;;11.50;99.90;;;;;;6155805;23;20028;-87
2023/06/03 00:41:12;;;;;;;15.20;5.78;;;11.50;99.90;;;;;;6158982;23;20036;-86
2023/06/03 00:43:59;;;;;;;19.48;5.55;;;11.40;99.90;;;;;;6156573;23;20025;-87
2023/06/03 00:46:49;;;;;;;15.80;5.38;;;11.50;99.90;;;;;;6156594;23;20032;-86
2023/06/03 00:49:37;;;;;;;15.48;5.13;;;11.50;99.90;;;;;;6154519;23;20036;-86
2023/06/03 00:52:26;;;;;;;20.75;5.93;;;11.40;99.90;;;;;;6156939;23;20026;-86
2023/06/03 00:55:13;;;;;;;13.40;5.82;;;11.20;99.90;;;;;;6155958;23;20044;-87
2023/06/03 00:58:00;;;;;;;18.60;5.88;;;11.10;99.90;;;;;;6155900;23;20049;-87
2023/06/03 01:00:50;;;;;;;10.98;5.50;;;11.00;99.90;;;;;;6155773;23;20041;-86
2023/06/03 01:03:41;;;;;;;14.60;5.82;;;10.90;99.90;;;;;;6157858;23;20048;-86
2023/06/03 01:06:46;;;;;;;13.50;5.18;;;10.90;99.90;;;;;;6154787;23;20022;-85
2023/06/03 01:09:52;;;;;;;14.10;6.07;;;10.70;99.90;;;;;;6155624;23;20447;-86
2023/06/03 01:12:48;;;;;;;20.48;6.57;;;10.60;99.90;;;;;;6156048;23;20040;-86
2023/06/03 01:15:37;;;;;;;13.05;5.88;;;10.50;99.90;;;;;;6155178;23;20033;-87
2023/06/03 01:18:24;;;;;;;16.75;6.80;;;10.50;99.90;;;;;;6154854;23;20032;-86
2023/06/03 01:21:16;;;;;;;15.05;6.00;;;10.50;99.90;;;;;;6155850;23;20332;-86
2023/06/03 01:24:04;;;;;;;16.05;5.70;;;10.50;99.90;;;;;;6155310;23;20033;-86
2023/06/03 01:26:51;;;;;;;20.58;6.90;;;10.60;99.90;;;;;;6155248;23;20408;-87
2023/06/03 01:29:41;;;;;;;14.38;5.90;;;10.60;99.90;;;;;;6155034;23;20409;-86
2023/06/03 01:32:30;;;;;;;16.67;6.50;;;10.40;99.90;;;;;;6154874;23;20029;-86
2023/06/03 01:35:20;;;;;;;19.25;6.43;;;10.30;99.90;;;;;;6157116;23;20445;-87
2023/06/03 01:38:08;;;;;;;18.65;6.32;;;10.30;1.00;;;;;;6154011;23;20040;-86
2023/06/03 01:40:55;;;;;;;14.63;6.00;;;10.50;1.00;;;;;;6154363;23;20036;-86
2023/06/03 01:43:43;;;;;;;15.45;5.70;;;10.50;1.00;;;;;;6154939;23;20029;-86
2023/06/03 01:46:30;;;;;;;17.65;6.18;;;10.50;1.00;;;;;;6156798;23;20029;-86
2023/06/03 01:49:20;;;;;;;17.30;6.28;;;10.40;1.00;;;;;;6154710;23;20026;-87
2023/06/03 01:52:07;;;;;;;12.43;5.35;;;10.30;1.00;;;;;;6155347;23;20022;-87
2023/06/03 01:54:55;;;;;;;23.77;7.57;;;10.30;1.00;;;;;;6153417;23;20028;-87
2023/06/03 01:57:47;;;;;;;18.88;6.63;;;10.40;1.00;;;;;;6156555;23;20032;-87
2023/06/03 02:00:34;;;;;;;11.90;6.15;;;10.30;1.00;;;;;;6154739;23;20034;-85
2023/06/03 02:03:24;;;;;;;16.73;6.75;;;10.30;1.00;;;;;;6153707;23;20484;-86
2023/06/03 02:06:14;;;;;;;21.77;6.85;;;10.10;1.00;;;;;;6154780;23;20064;-87
2023/06/03 02:09:03;;;;;;;15.07;7.13;;;10.10;1.00;;;;;;6155144;23;20433;-87
2023/06/03 02:11:54;;;;;;;14.70;6.47;;;9.90;1.00;;;;;;6154389;23;20341;-86
2023/06/03 02:14:46;;;;;;;18.50;6.72;;;9.80;1.00;;;;;;6154390;23;20022;-87
2023/06/03 02:17:33;;;;;;;19.13;7.55;;;9.70;1.00;;;;;;6153767;23;20096;-86
2023/06/03 02:20:22;;;;;;;14.35;6.72;;;9.70;1.00;;;;;;6154609;23;20362;-86
2023/06/03 02:23:10;;;;;;;23.63;8.40;;;9.70;1.00;;;;;;6153938;23;20444;-86
2023/06/03 02:25:58;;;;;;;21.35;6.70;;;9.70;11.40;;;;;;6153614;23;20045;-88
2023/06/03 02:28:45;;;;;;;18.17;6.93;;;9.70;28.20;;;;;;6157295;23;20025;-87
2023/06/03 02:31:32;;;;;;;12.45;6.30;;;9.80;37.60;;;;;;6154462;23;20026;-86
2023/06/03 02:34:21;;;;;;;17.88;6.22;;;9.80;32.30;;;;;;6156480;23;20109;-86
2023/06/03 02:37:10;;;;;;;18.00;6.60;;;9.70;28.90;;;;;;6153403;23;20041;-87
2023/06/03 02:39:57;;;;;;;16.08;6.63;;;9.70;48.50;;;;;;6154817;23;20413;-87
2023/06/03 02:42:45;;;;;;;20.58;6.50;;;9.60;68.90;;;;;;6154503;23;20025;-86
2023/06/03 02:45:32;;;;;;;14.13;7.47;;;9.70;97.00;;;;;;6153914;23;20018;-87
2023/06/03 02:48:22;;;;;;;21.27;7.18;;;9.60;99.90;;;;;;6154555;23;20029;-87
2023/06/03 02:51:09;;;;;;;20.23;7.32;;;9.60;99.90;;;;;;6154481;23;20037;-86
2023/06/03 02:53:56;;;;;;;20.08;7.20;;;9.60;99.90;;;;;;6154603;23;20066;-86
2023/06/03 02:56:44;;;;;;;18.40;7.25;;;9.60;99.90;;;;;;6154692;23;20033;-85
2023/06/03 02:59:31;;;;;;;17.95;7.22;;;9.60;99.90;;;;;;6155944;23;20035;-86
2023/06/03 03:02:22;;;;;;;18.65;7.43;;;9.60;99.90;;;;;;6154158;23;20029;-87
2023/06/03 03:05:10;;;;;;;24.88;7.45;;;9.70;99.90;;;;;;6154551;23;20157;-86
2023/06/03 03:07:58;;;;;;;21.25;7.32;;;9.70;99.90;;;;;;6155006;23;20295;-86
2023/06/03 03:10:46;;;;;;;20.48;6.65;;;9.70;99.90;;;;;;6155814;23;20252;-87
2023/06/03 03:13:33;;;;;;;20.90;6.80;;;9.60;99.90;;;;;;6154488;23;20021;-86
2023/06/03 03:16:21;;;;;;;23.90;7.80;;;9.60;99.90;;;;;;6155955;23;20022;-87
2023/06/03 03:19:14;;;;;;;14.43;6.47;;;9.60;99.90;;;;;;6162425;23;20021;-87
2023/06/03 03:22:02;;;;;;;21.70;8.02;;;9.70;99.90;;;;;;6154200;23;20436;-87
2023/06/03 03:24:51;;;;;;;16.70;7.65;;;9.60;99.90;;;;;;6153827;23;20021;-86
2023/06/03 03:27:38;;;;;;;14.98;6.60;;;9.50;99.90;;;;;;6153529;23;20094;-87
2023/06/03 03:30:26;;;;;;;17.92;7.18;;;9.40;99.90;;;;;;6155577;23;20290;-87
2023/06/03 03:33:22;;;;;;;19.85;7.30;;;9.30;99.90;;;;;;6158616;23;20022;-86
2023/06/03 03:36:28;;;;;;;17.80;7.32;;;9.30;99.90;;;;;;6156046;23;20030;-86
2023/06/03 03:39:18;;;;;;;20.00;7.28;;;9.20;99.90;;;;;;6155331;23;20256;-86
2023/06/03 03:42:06;;;;;;;14.43;7.35;;;9.20;99.90;;;;;;6159589;23;20298;-86
2023/06/03 03:44:53;;;;;;;15.27;7.13;;;9.20;99.90;;;;;;6155639;23;20084;-86
2023/06/03 03:47:40;;;;;;;17.70;8.05;;;9.10;99.90;;;;;;6155003;23;20311;-87
2023/06/03 03:50:47;;;;;;;15.13;8.30;;;9.10;99.90;;;;;;6157701;23;20041;-87
2023/06/03 03:53:35;;;;;;;16.70;8.85;;;9.20;1.00;;;;;;6156436;23;20104;-86
2023/06/03 03:56:23;;;;;;;16.77;8.88;;;9.30;1.00;;;;;;6156507;23;20026;-86
2023/06/03 03:59:15;;;;;;;23.27;9.18;;;9.40;1.00;;;;;;6156022;23;20049;-86
2023/06/03 04:02:05;;;;;;;19.52;9.15;;;9.40;99.90;;;;;;6155713;23;20025;-88
2023/06/03 04:04:53;;;;;;;15.93;7.97;;;9.40;99.90;;;;;;6155237;23;20018;-90
2023/06/03 04:07:40;;;;;;;14.18;8.15;;;9.50;99.90;;;;;;6154660;23;20350;-89
2023/06/03 04:10:27;;;;;;;14.68;8.15;;;9.50;99.90;;;;;;6153095;23;20458;-89
2023/06/03 04:13:16;;;;;;;21.55;7.97;;;9.50;99.90;;;;;;6155270;23;20068;-89
2023/06/03 04:16:44;;;;;;;15.05;7.93;;;9.60;99.90;;;;;;6156271;23;20026;-89
2023/06/03 04:19:36;;;;;;;18.92;8.48;;;9.60;99.90;;;;;;6157763;23;20033;-90
2023/06/03 04:22:25;;;;;;;15.43;7.78;;;9.60;99.90;;;;;;6160788;23;20137;-89
2023/06/03 04:25:13;;;;;;;19.80;8.32;;;9.70;99.90;;;;;;6157349;23;20029;-89
2023/06/03 04:28:00;;;;;;;19.73;7.82;;;9.70;99.90;;;;;;6157586;23;20029;-89
2023/06/03 04:30:48;;;;;;;20.88;7.47;;;9.80;99.90;;;;;;6157327;23;20365;-89
2023/06/03 04:33:36;;;;;;;18.65;8.00;;;10.00;99.90;;;;;;6156378;23;20084;-88
2023/06/03 04:36:23;;;;;;;18.85;7.75;;;10.10;99.90;;;;;;6158683;23;20027;-88
2023/06/03 04:39:11;;;;;;;17.52;6.95;;;10.20;99.90;;;;;;6155323;23;20035;-86
2023/06/03 04:42:02;;;;;;;12.93;6.63;;;10.30;99.90;;;;;;6155947;23;20357;-88
2023/06/03 04:44:53;;;;;;;15.68;6.97;;;10.50;99.90;;;;;;6156002;23;20021;-89
2023/06/03 04:47:41;;;;;;;22.60;7.40;;;10.70;99.90;;;;;;6157761;23;20026;-88
2023/06/03 04:50:35;;;;;;;17.67;6.88;;;10.70;99.90;;;;;;6156228;23;20031;-87
2023/06/03 04:53:25;;;;;;;21.70;7.40;;;10.80;91.80;;;;;;6155817;23;20025;-88
2023/06/03 04:56:13;;;;;;;17.52;6.28;;;10.90;38.40;;;;;;6155127;23;20040;-88
2023/06/03 04:59:03;;;;;;;15.05;5.93;;;11.00;5.00;;;;;;6154567;23;20048;-88
2023/06/03 05:01:51;;;;;;;21.00;7.03;;;11.10;1.00;;;;;;6156241;23;20088;-87
2023/06/03 05:04:40;;;;;;;15.10;6.40;;;11.20;1.00;;;;;;6155877;23;20123;-87
2023/06/03 05:07:28;;;;;;;13.23;6.10;;;11.30;1.00;;;;;;6156302;23;20040;-86
2023/06/03 05:10:15;;;;;;;20.92;6.60;;;11.30;1.00;;;;;;6154983;23;20033;-88
2023/06/03 05:13:03;;;;;;;14.15;6.28;;;11.50;1.00;;;;;;6156601;23;20025;-87
2023/06/03 05:15:50;;;;;;;16.25;6.57;;;11.50;1.00;;;;;;6155997;23;20425;-87
2023/06/03 05:18:40;;;;;;;18.65;6.40;;;11.60;1.00;;;;;;6155511;23;20307;-87
2023/06/03 05:21:28;;;;;;;18.58;6.05;;;11.70;1.00;;;;;;6154995;23;20040;-87
2023/06/03 05:24:15;;;;;;;13.38;5.80;;;11.80;1.00;;;;;;6155584;23;20101;-89
2023/06/03 05:27:05;;;;;;;16.33;5.97;;;11.90;1.00;;;;;;6155793;23;20033;-87
2023/06/03 05:29:52;;;;;;;14.35;6.22;;;12.00;99.90;;;;;;6155200;23;20029;-86
2023/06/03 05:32:41;;;;;;;17.23;6.53;;;12.10;99.90;;;;;;6155084;23;20029;-86
2023/06/03 05:35:31;;;;;;;16.35;5.90;;;12.30;99.90;;;;;;6154773;23;20101;-86
2023/06/03 05:38:21;;;;;;;16.05;6.10;;;12.30;99.90;;;;;;6154881;23;20022;-86
2023/06/03 05:41:08;;;;;;;14.57;5.07;;;12.40;99.90;;;;;;6155263;23;20025;-85
2023/06/03 05:43:55;;;;;;;20.17;6.28;;;12.50;99.90;;;;;;6155466;23;20033;-89
2023/06/03 05:46:46;;;;;;;16.27;6.35;;;12.60;99.90;;;;;;6155074;23;20053;-87
2023/06/03 05:49:36;;;;;;;12.50;5.47;;;12.70;99.90;;;;;;6155667;23;20025;-85
2023/06/03 05:52:24;;;;;;;13.90;5.95;;;12.80;99.90;;;;;;6154388;23;20051;-88
2023/06/03 05:55:12;;;;;;;15.82;5.90;;;12.80;99.90;;;;;;6155531;23;20039;-85
2023/06/03 05:58:00;;;;;;;15.10;5.82;;;12.90;99.90;;;;;;6154587;23;20021;-85
2023/06/03 06:00:47;;;;;;;22.02;6.15;;;13.10;99.90;;;;;;6155206;23;20044;-85
2023/06/03 06:03:35;;;;;;;14.68;5.78;;;13.20;99.90;;;;;;6154477;23;20396;-87
2023/06/03 06:06:22;;;;;;;14.45;6.03;;;13.30;99.90;;;;;;6156309;23;20025;-85
2023/06/03 06:09:10;;;;;;;16.35;6.00;;;13.40;99.90;;;;;;6157658;23;20037;-84
2023/06/03 06:11:57;;;;;;;16.33;6.03;;;13.40;99.90;;;;;;6156847;23;20344;-86
2023/06/03 06:14:44;;;;;;;13.10;5.60;;;13.50;99.90;;;;;;6154855;23;20029;-87
2023/06/03 06:17:31;;;;;;;11.40;5.65;;;13.60;99.90;;;;;;6154724;23;20108;-86
2023/06/03 06:20:21;;;;;;;12.30;5.68;;;13.70;99.90;;;;;;6152927;23;20052;-88
2023/06/03 06:23:08;;;;;;;16.50;5.57;;;13.80;99.90;;;;;;6154544;23;20033;-84
2023/06/03 06:25:56;;;;;;;13.80;5.50;;;13.90;99.90;;;;;;6155929;23;20040;-85
2023/06/03 06:28:45;;;;;;;17.35;5.88;;;14.00;99.90;;;;;;6154725;23;20064;-86
2023/06/03 06:31:33;;;;;;;14.27;6.25;;;14.20;99.90;;;;;;6155058;23;20037;-85
2023/06/03 06:34:21;;;;;;;14.35;5.30;;;14.30;99.90;;;;;;6153628;23;20333;-85
2023/06/03 06:37:13;;;;;;;17.92;5.65;;;14.50;99.90;;;;;;6158043;23;20018;-87
2023/06/03 06:40:01;;;;;;;10.27;4.95;;;14.70;99.90;;;;;;6161516;23;20025;-90
2023/06/03 06:42:51;;;;;;;10.20;4.85;;;15.00;99.90;;;;;;6156273;23;20097;-87
2023/06/03 06:45:38;;;;;;;12.02;5.60;;;15.10;99.90;;;;;;6154631;23;20078;-86
2023/06/03 06:48:26;;;;;;;15.90;5.68;;;15.20;99.90;;;;;;6154712;23;20164;-86
2023/06/03 06:51:14;;;;;;;14.95;5.20;;;15.60;99.90;;;;;;6154643;23;20021;-85
2023/06/03 06:54:01;;;;;;;12.95;5.00;;;15.70;99.90;;;;;;6156191;23;20036;-86
2023/06/03 06:56:48;;;;;;;13.73;5.13;;;15.90;99.90;;;;;;6155216;23;20100;-88
2023/06/03 06:59:36;;;;;;;11.68;5.97;;;16.40;89.60;;;;;;6156511;23;20033;-89
2023/06/03 07:02:23;;;;;;;11.65;4.80;;;16.60;50.70;;;;;;6155335;23;20378;-87
2023/06/03 07:05:10;;;;;;;19.50;5.65;;;16.90;37.30;;;;;;6154180;23;20040;-89
2023/06/03 07:07:58;;;;;;;17.05;4.97;;;17.10;16.90;;;;;;6154447;23;20108;-88
2023/06/03 07:10:45;;;;;;;16.45;4.43;;;17.40;17.90;;;;;;6155610;23;20021;-89
2023/06/03 07:13:33;;;;;;;12.18;4.63;;;18.00;9.50;;;;;;6156280;23;20029;-93
2023/06/03 07:16:24;;;;;;;14.43;4.68;;;18.20;1.00;;;;;;6154725;23;20021;-88
2023/06/03 07:19:12;;;;;;;10.90;5.10;;;18.50;1.00;;;;;;6156526;23;20097;-91
2023/06/03 07:22:01;;;;;;;15.77;5.25;;;18.70;1.00;;;;;;6154073;23;20329;-84
2023/06/03 07:24:48;;;;;;;12.13;5.10;;;19.10;1.00;;;;;;6154398;23;20330;-86
2023/06/03 07:27:42;;;;;;;14.13;4.45;;;19.50;1.00;;;;;;6153774;23;20040;-87
2023/06/03 07:30:33;;;;;;;11.52;5.00;;;20.00;1.00;;;;;;6154826;23;20488;-88
2023/06/03 07:33:27;;;;;;;13.35;4.57;;;20.00;1.00;;;;;;6152741;23;20025;-87
2023/06/03 07:36:15;;;;;;;12.40;4.88;;;20.30;1.00;;;;;;6153890;23;20026;-89
2023/06/03 07:39:08;;;;;;;14.65;4.22;;;20.60;1.00;;;;;;6154029;23;20049;-87
2023/06/03 07:41:58;;;;;;;10.95;4.90;;;21.10;1.00;;;;;;6156606;23;20034;-86
2023/06/03 07:44:48;;;;;;;11.38;4.85;;;21.20;1.00;;;;;;6153692;23;20030;-87
2023/06/03 07:47:35;;;;;;;10.27;4.22;;;21.90;1.00;;;;;;6154542;23;20029;-85
2023/06/03 07:50:25;;;;;;;13.43;4.88;;;22.40;1.00;;;;;;6155079;23;20025;-85
2023/06/03 07:53:22;;;;;;;12.15;4.35;;;22.50;1.00;;;;;;6154641;23;20021;-86
2023/06/03 07:56:13;;;;;;;10.40;4.57;;;22.30;1.00;;;;;;6154092;23;20037;-86
2023/06/03 07:59:04;;;;;;;13.75;4.82;;;22.00;1.00;;;;;;6154895;23;20310;-87
2023/06/03 08:01:57;;;;;;;13.70;4.60;;;22.10;1.00;;;;;;6156347;23;20029;-85
2023/06/03 08:04:45;;;;;;;12.25;4.90;;;22.20;1.00;;;;;;6154859;23;20047;-88
2023/06/03 08:07:33;;;;;;;9.88;4.25;;;22.50;1.00;;;;;;6157949;23;20030;-88
2023/06/03 08:10:24;;;;;;;11.32;4.70;;;22.70;1.00;;;;;;6155409;23;20344;-86
2023/06/03 08:13:13;;;;;;;14.77;4.10;;;23.00;1.00;;;;;;6154736;23;20026;-86
2023/06/03 08:16:02;;;;;;;9.20;4.45;;;23.40;1.00;;;;;;6155779;23;20103;-88
2023/06/03 08:18:57;;;;;;;11.38;4.60;;;23.90;1.00;;;;;;6158032;23;20047;-85
2023/06/03 08:21:44;;;;;;;13.45;4.95;;;23.70;1.00;;;;;;6160323;23;20429;-86
2023/06/03 08:24:32;;;;;;;13.27;5.13;;;23.60;1.00;;;;;;6156673;23;20029;-86
2023/06/03 08:27:19;;;;;;;7.35;4.35;;;23.70;1.00;;;;;;6156173;23;20025;-86
2023/06/03 08:30:07;;;;;;;14.07;4.60;;;24.10;1.00;;;;;;6157126;23;20026;-86
2023/06/03 08:32:55;;;;;;;14.60;4.97;;;24.90;1.00;;;;;;6157222;23;20036;-87
2023/06/03 08:35:47;;;;;;;11.30;4.75;;;25.20;1.00;;;;;;6155965;23;20104;-90
2023/06/03 08:38:35;;;;;;;11.23;4.60;;;25.60;1.00;;;;;;6157082;23;20044;-88
2023/06/03 08:41:26;;;;;;;14.00;4.50;;;25.50;1.00;;;;;;6156367;23;20437;-87
2023/06/03 08:44:28;;;;;;;9.90;4.13;;;25.70;1.00;;;;;;6155439;23;20036;-87
2023/06/03 08:47:29;;;;;;;10.25;4.32;;;25.50;1.00;;;;;;6156242;23;20036;-88
2023/06/03 08:50:20;;;;;;;10.32;4.72;;;25.70;1.00;;;;;;6155988;23;20021;-86
2023/06/03 08:53:11;;;;;;;8.88;4.13;;;26.00;1.00;;;;;;6156912;23;20575;-88
2023/06/03 08:56:02;;;;;;;10.30;4.22;;;25.80;1.00;;;;;;6155232;23;20312;-86
2023/06/03 08:58:59;;;;;;;10.27;4.05;;;26.30;1.00;;;;;;6155895;23;20036;-85
2023/06/03 09:01:50;;;;;;;10.65;4.75;;;26.70;1.00;;;;;;6154841;23;20026;-87
2023/06/03 09:04:38;;;;;;;11.75;5.00;;;26.70;1.00;;;;;;6155966;23;20325;-86
2023/06/03 09:07:26;;;;;;;7.95;4.70;;;27.10;1.00;;;;;;6156576;23;20131;-88
2023/06/03 09:10:20;;;;;;;10.43;4.70;;;26.30;1.00;;;;;;6156061;23;20033;-89
2023/06/03 09:13:08;;;;;;;10.43;4.72;;;26.70;1.00;;;;;;6156359;23;20786;-88
2023/06/03 09:15:57;;;;;;;10.75;4.78;;;26.30;1.00;;;;;;6157168;23;20330;-89
2023/06/03 09:18:44;;;;;;;12.68;4.97;;;26.30;1.00;;;;;;6155977;23;20041;-88
2023/06/03 09:21:32;;;;;;;11.68;4.53;;;26.10;1.00;;;;;;6151249;23;20321;-88
2023/06/03 09:24:22;;;;;;;14.80;5.18;;;26.60;1.00;;;;;;6136534;23;20033;-88
2023/06/03 09:27:10;;;;;;;8.82;4.00;;;27.40;1.00;;;;;;6154818;23;20029;-85
2023/06/03 09:30:01;;;;;;;12.82;4.82;;;27.80;1.00;;;;;;6154141;23;20025;-89
2023/06/03 09:32:48;;;;;;;12.98;4.80;;;27.80;1.00;;;;;;6155920;23;20041;-90
2023/06/03 09:35:36;;;;;;;12.35;4.70;;;27.60;1.00;;;;;;6136379;23;20105;-88
2023/06/03 09:38:24;;;;;;;14.07;3.97;;;27.40;1.00;;;;;;6155497;23;20026;-89
2023/06/03 09:41:19;;;;;;;19.02;5.28;;;28.00;1.00;;;;;;6156236;23;20052;-88
2023/06/03 09:44:08;;;;;;;10.38;4.40;;;28.10;1.00;;;;;;6156768;23;20030;-88
2023/06/03 09:46:56;;;;;;;8.65;4.10;;;28.30;1.00;;;;;;6154095;23;20029;-89
2023/06/03 09:50:03;;;;;;;12.70;4.78;;;28.40;1.00;;;;;;6157100;23;20061;-91
2023/06/03 09:52:50;;;;;;;10.40;4.75;;;28.40;1.00;;;;;;6155141;23;20036;-90
2023/06/03 09:55:38;;;;;;;9.90;4.85;;;28.60;1.00;;;;;;6155527;23;20088;-92
2023/06/03 09:58:25;;;;;;;10.85;4.65;;;28.10;1.00;;;;;;6156678;23;20021;-88
2023/06/03 10:01:18;;;;;;;10.38;5.43;;;28.00;1.00;;;;;;6155909;23;20035;-90
2023/06/03 10:04:05;;;;;;;16.02;4.90;;;28.40;1.00;;;;;;6159358;23;20025;-91
2023/06/03 10:07:13;;;;;;;12.07;5.03;;;29.00;1.00;;;;;;6156615;23;20127;-91
2023/06/03 10:10:05;;;;;;;13.30;5.30;;;29.40;1.00;;;;;;6155994;23;20084;-90
2023/06/03 10:12:52;;;;;;;;;;;28.90;1.00;;;;;;6156570;23;20048;-90
2023/06/03 10:15:40;;;;;;;11.38;4.60;;;28.60;1.00;;;;;;6156095;23;19927;-88
2023/06/03 10:18:38;;;;;;;12.48;4.80;;;28.30;1.00;;;;;;6151914;23;20030;-88
2023/06/03 10:21:28;;;;;;;12.07;4.55;;;27.10;1.00;;;;;;6153445;23;20100;-87
2023/06/03 10:24:16;;;;;;;11.98;5.07;;;26.70;1.00;;;;;;6154803;23;20397;-87
2023/06/03 10:27:05;;;;;;;12.18;4.43;;;26.80;1.00;;;;;;6156444;23;20029;-88
2023/06/03 10:29:53;;;;;;;11.43;4.93;;;27.00;1.00;;;;;;6154850;23;20029;-90
2023/06/03 10:32:44;;;;;;;8.70;4.10;;;27.30;1.00;;;;;;6155414;23;20033;-88
2023/06/03 10:35:32;;;;;;;9.48;4.70;;;28.50;1.00;;;;;;6156471;23;20048;-90
2023/06/03 10:38:20;;;;;;;9.70;4.65;;;29.60;1.00;;;;;;6156893;23;20037;-89
2023/06/03 10:41:09;;;;;;;10.75;4.43;;;30.10;1.00;;;;;;6155403;23;20025;-91
2023/06/03 10:43:57;;;;;;;15.43;5.18;;;30.20;1.00;;;;;;6154344;23;20053;-90
2023/06/03 10:46:55;;;;;;;10.18;4.50;;;30.30;1.00;;;;;;6154774;23;20040;-88
2023/06/03 10:49:45;;;;;;;14.52;4.63;;;30.80;1.00;;;;;;6155806;23;20029;-86
2023/06/03 10:52:58;;;;;;;8.32;4.47;;;30.70;1.00;;;;;;6155087;23;20032;-91
2023/06/03 10:56:02;;;;;;;;;;;30.50;1.00;;;;;;6158148;23;20032;-89
2023/06/03 10:59:05;;;;;;;9.25;4.68;;;30.80;1.00;;;;;;6158962;23;19921;-88
2023/06/03 11:02:03;;;;;;;11.15;5.22;;;30.90;1.00;;;;;;6157771;23;20044;-92
2023/06/03 11:05:41;;;;;;;10.25;4.63;;;30.70;1.00;;;;;;6155114;23;20061;-90
2023/06/03 11:21:50;;;;;;;11.40;4.50;;;31.80;1.00;;;;;;6067250;23;20015;-90
2023/06/03 11:24:46;;;;;;;8.88;4.20;;;31.80;1.00;;;;;;6055539;23;20171;-86
2023/06/03 11:27:33;;;;;;;7.95;4.40;;;31.40;1.00;;;;;;6155883;23;20100;-88
2023/06/03 11:41:12;;;;;;;12.15;5.30;;;31.70;1.00;;;;;;6159284;23;20021;-89
2023/06/03 11:52:11;;;;;;;10.00;4.35;;;33.00;1.00;;;;;;6186381;23;20016;-88
2023/06/03 12:07:37;;;;;;;15.05;5.18;;;34.50;1.00;;;;;;6185875;23;20027;-88
2023/06/03 12:14:33;;;;;;;10.60;5.38;;;33.00;1.00;;;;;;6187011;23;20048;-89
2023/06/03 12:21:41;;;;;;;11.45;5.38;;;28.60;1.00;;;;;;6187149;23;20021;-91
2023/06/03 12:24:31;;;;;;;6.97;4.13;;;29.10;1.00;;;;;;6188567;23;20033;-89
2023/06/03 12:27:28;;;;;;;10.57;5.47;;;31.00;1.00;;;;;;6189386;23;20052;-89
2023/06/03 12:30:33;;;;;;;9.57;4.70;;;32.00;1.00;;;;;;6190636;23;20032;-88
2023/06/03 12:33:41;;;;;;;7.25;4.63;;;33.10;1.00;;;;;;6188096;23;20072;-86
2023/06/03 12:36:48;;;;;;;10.07;4.63;;;32.90;1.00;;;;;;6188389;23;20040;-86
2023/06/03 12:39:49;;;;;;;9.13;4.75;;;32.10;1.00;;;;;;6186967;23;20029;-88
2023/06/03 12:42:56;;;;;;;6.88;4.30;;;33.00;1.00;;;;;;6188895;23;20032;-89
2023/06/03 12:45:47;;;;;;;11.02;5.05;;;33.40;1.00;;;;;;6187678;23;20025;-88
2023/06/03 12:48:36;;;;;;;9.77;4.45;;;32.60;1.00;;;;;;6186176;23;20025;-89
2023/06/03 12:51:31;;;;;;;9.30;4.72;;;33.00;1.00;;;;;;6187141;23;20024;-86
2023/06/03 12:54:43;;;;;;;7.32;4.45;;;33.00;1.00;;;;;;6121749;23;20029;-87
2023/06/03 12:57:34;;;;;;;9.90;4.63;;;32.20;1.00;;;;;;6187686;23;20025;-90
2023/06/03 13:00:22;;;;;;;5.75;4.20;;;32.60;1.00;;;;;;6187593;23;20091;-89
2023/06/03 13:03:10;;;;;;;7.90;4.60;;;34.00;1.00;;;;;;6184525;23;20025;-88
2023/06/03 13:05:57;;;;;;;8.90;4.28;;;35.40;1.00;;;;;;6187998;23;20028;-89
2023/06/03 13:08:44;;;;;;;10.38;4.78;;;35.50;1.00;;;;;;6188932;23;20036;-90
2023/06/03 13:11:35;;;;;;;6.30;4.10;;;34.10;1.00;;;;;;6188937;23;20040;-89
2023/06/03 13:14:25;;;;;;;7.60;4.47;;;33.20;1.00;;;;;;6190756;23;20079;-87
2023/06/03 13:17:15;;;;;;;6.68;4.40;;;32.10;1.00;;;;;;6190429;23;20029;-89
2023/06/03 13:20:06;;;;;;;9.75;4.60;;;32.50;1.00;;;;;;6186934;23;20029;-89
2023/06/03 13:22:56;;;;;;;9.57;4.78;;;32.20;1.00;;;;;;6189716;23;20031;-88
2023/06/03 13:25:46;;;;;;;9.50;5.18;;;30.90;1.00;;;;;;6189795;23;20028;-89
2023/06/03 13:28:33;;;;;;;8.25;4.78;;;31.80;1.00;;;;;;6187631;23;20265;-90
2023/06/03 13:31:21;;;;;;;8.18;4.55;;;32.60;1.00;;;;;;6187213;23;20025;-88
2023/06/03 13:34:09;;;;;;;8.70;4.38;;;33.00;1.00;;;;;;6189551;23;20033;-87
2023/06/03 13:37:00;;;;;;;13.43;4.68;;;32.90;1.00;;;;;;6191340;23;20035;-90
2023/06/03 13:40:09;;;;;;;7.05;4.68;;;32.60;1.00;;;;;;6190979;23;20412;-92
2023/06/03 13:43:02;;;;;;;7.57;4.85;;;33.40;1.00;;;;;;6185818;23;20119;-90
2023/06/03 13:45:51;;;;;;;12.57;4.75;;;32.70;1.00;;;;;;6184166;23;20024;-89
2023/06/03 13:48:45;;;;;;;6.60;3.95;;;32.60;1.00;;;;;;6186875;23;20036;-90
2023/06/03 13:51:37;;;;;;;4.90;4.00;;;33.30;1.00;;;;;;6185176;23;20115;-91
2023/06/03 13:54:24;;;;;;;6.40;4.38;;;33.30;1.00;;;;;;6186789;23;20028;-93
2023/06/03 13:57:13;;;;;;;7.35;4.13;;;32.90;1.00;;;;;;6189396;23;20029;-89
2023/06/03 14:00:00;;;;;;;8.82;4.32;;;32.80;1.00;;;;;;6189691;23;20032;-89
2023/06/03 14:02:48;;;;;;;7.82;4.60;;;33.50;1.00;;;;;;6188066;23;20324;-87
2023/06/03 14:05:38;;;;;;;8.25;4.55;;;33.70;1.00;;;;;;6189308;23;20021;-89
2023/06/03 14:08:28;;;;;;;9.75;4.65;;;32.70;1.00;;;;;;6166115;23;20055;-87
2023/06/03 14:11:19;;;;;;;7.72;4.82;;;31.00;1.00;;;;;;6189473;23;20028;-90
2023/06/03 14:14:07;;;;;;;7.72;5.18;;;29.00;1.00;;;;;;6197547;23;20140;-91
2023/06/03 14:16:55;;;;;;;11.30;5.13;;;27.60;1.00;;;;;;6192318;23;20116;-88
2023/06/03 14:19:42;;;;;;;9.25;5.47;;;26.60;1.00;;;;;;6185594;23;20048;-89
2023/06/03 14:22:30;;;;;;;15.05;6.20;;;26.20;1.00;;;;;;6186159;23;20021;-89
2023/06/03 14:25:17;;;;;;;9.10;5.10;;;25.90;1.00;;;;;;6185679;23;20048;-90
2023/06/03 14:28:05;;;;;;;8.88;5.30;;;25.60;1.00;;;;;;6186322;23;20029;-92
2023/06/03 14:30:52;;;;;;;14.60;5.82;;;25.50;1.00;;;;;;6185655;23;20025;-90
2023/06/03 14:33:44;;;;;;;;;;;25.40;1.00;;;;;;6185545;23;20087;-91
2023/06/03 14:36:34;;;;;;;10.98;5.47;;;25.40;1.00;;;;;;6187122;23;19920;-90
2023/06/03 14:39:22;;;;;;;11.82;5.65;;;26.30;1.00;;;;;;6187402;23;20329;-87
2023/06/03 14:42:09;;;;;;;10.10;5.60;;;26.20;1.00;;;;;;6188023;23;20083;-90
2023/06/03 14:44:57;;;;;;;7.65;5.18;;;26.00;1.00;;;;;;6190676;23;20032;-89
2023/06/03 14:47:48;;;;;;;8.40;5.38;;;25.40;1.00;;;;;;6193727;23;20035;-90
2023/06/03 14:50:38;;;;;;;8.38;4.80;;;25.00;1.00;;;;;;6195318;23;20064;-89
2023/06/03 14:53:28;;;;;;;9.15;4.97;;;26.20;1.00;;;;;;6196546;23;20025;-91
2023/06/03 14:56:15;;;;;;;9.73;4.97;;;28.00;1.00;;;;;;6195675;23;20029;-89
2023/06/03 14:59:05;;;;;;;11.48;4.90;;;29.20;1.00;;;;;;6189425;23;20044;-91
2023/06/03 15:01:55;;;;;;;8.98;4.65;;;30.00;1.00;;;;;;6187683;23;20045;-88
2023/06/03 15:04:53;;;;;;;;;;;;;;;;;;;;;
2023/06/03 15:07:42;;;;;;;8.45;4.40;;;31.10;1.00;;;;;;6185460;23;20021;-89
2023/06/03 15:10:31;;;;;;;6.05;4.15;;;31.90;1.00;;;;;;6184612;23;20100;-89
2023/06/03 15:13:19;;;;;;;8.07;4.10;;;31.30;1.00;;;;;;6187785;23;20095;-92
2023/06/03 15:16:09;;;;;;;8.38;4.70;;;31.40;1.00;;;;;;6189852;23;20029;-89
2023/06/03 15:18:56;;;;;;;8.95;4.45;;;30.70;1.00;;;;;;6188390;23;20032;-90
2023/06/03 15:21:48;;;;;;;6.95;4.88;;;30.30;1.00;;;;;;6183779;23;20025;-89
2023/06/03 15:24:38;;;;;;;7.43;4.40;;;30.00;1.00;;;;;;6185876;23;20079;-91
2023/06/03 15:27:25;;;;;;;8.80;4.90;;;30.30;1.00;;;;;;6187296;23;20351;-87
2023/06/03 15:30:12;;;;;;;7.05;4.32;;;30.40;1.00;;;;;;6186346;23;20029;-88
2023/06/03 15:33:00;;;;;;;9.38;4.20;;;30.60;1.00;;;;;;6187548;23;20108;-88
2023/06/03 15:35:48;;;;;;;8.00;4.63;;;30.90;1.00;;;;;;6186841;23;20173;-87
2023/06/03 15:38:36;;;;;;;7.97;4.22;;;30.50;1.00;;;;;;6188742;23;20420;-87
2023/06/03 15:41:26;;;;;;;9.50;4.43;;;30.80;1.00;;;;;;6186962;23;20104;-88